Heitorai, Brazil
Current Conditions -  °F | °C
As of 5:00 PM on Thursday 18 Dec 2014 (Local Time) from SBAN Reporting Station
Broken Clouds Broken Clouds  
Wind Chill: 73°   Ceiling: 10000
Heat Index: 73°   Visibility: 6mi
Dew Point: 64°   Wind: 7mph
Humidity: 73%   Direction: 350°N
Pressure: 29.94"   Gusts: NA
Location:  15.72°S, 49.83°W
Report Text: SBAN 181900Z 35006KT 9999 SCT010 SCT020 FEW025TCU BKN100 23/18 Q1014
Loading
Personal Weather Stations






























Interactive Weather Map New forecast layout! Learn more

10-Day Weather Forecast

Advertisements
Track Severe Weather on mobile